x

Gulf Of Maine - 78 Nm East Of Portsmouth, Nh (44005) Wave Buoy

11:50 - Mon 5th Dec 2016 All times are EST. -5 hours from GMT.

  • Sig Wave height 4.9ft
  • Swell Direction
  • Peak Period 5s
  • Average Period 5s
  • Wind
    25mph, 29mph gusts
  • Sea Temp 50°f
  • Aire Temp 39°f
  • Sea Pressure 1012.5mb
  • Gulf Of Maine - 78 Nm East Of Portsmouth, Nh
  • Gulf Of Maine - 78 Nm East Of Portsmouth, Nh

More Historic Weather Station data

Upgrade to MSW Pro to gain access to the past 30 days of data for over 8000 Wavebouys and Weather Stations around the globe.

Join Pro

Comparision Forecast

View Surf forecast
   
lun 12/05 11:50 5ft 5s 5s 25 29 mph 1012.5mb 50f 39f
10:50 4.5ft 5s 4s 25 27 mph 1012.3mb 50f 39f
9:50 4.5ft 4s 4s 22 29 mph 1011.7mb 50f 39f
8:50 4ft 5s 4s 25 29 mph 1011.3mb 50f 41f
7:50 3.5ft 4s 4s 25 27 mph 1011.4mb 50f 42f
6:50 3.5ft 4s 4s 18 22 mph 1011.1mb 50f 43f
5:50 3.5ft 4s 4s 16 20 mph 1011.9mb 50f 42f
4:50 3.5ft 4s 4s 16 20 mph 1012.5mb 50f 42f
3:50 3ft 3s 4s 18 22 mph 1012.7mb 50f 41f
2:50 2.5ft 10s 4s 20 22 mph 1012.6mb 50f 40f
1:50 2ft 10s 4s 16 20 mph 1013.2mb 50f 40f
12:50 1.6ft 9s 5s 13 16 mph 1014.1mb 50f 40f
11:50 1.6ft 10s 6s 11 16 mph 1015.6mb 50f 39f
10:50 2ft 9s 6s 9 11 mph 1016.9mb 50f 39f
9:50 2ft 8s 6s 7 11 mph 1018.1mb 50f 39f
8:50 2ft 9s 5s 4 7 mph 1018.9mb 50f 38f
7:50 2ft 8s 5s 4 7 mph 1019.1mb 50f 38f
6:50 2ft 9s 5s 4 11 mph 1019.4mb 50f 37f
5:50 2ft 4s 4s 4 9 mph 1019.9mb 50f 37f
4:50 2ft 4s 4s  -  2 mph 1019.5mb 50f 36f
3:50 2ft 5s 4s 2 4 mph 1020.3mb 50f 35f
2:50 2.5ft 4s 4s 4 7 mph 1020mb 50f 35f
1:50 2.5ft 4s 4s 7 9 mph 1020.8mb 50f 35f
12:50 2.5ft 5s 4s 9 11 mph 1020.6mb 50f 35f
dom 12/04 11:50 3.5ft 5s 4s 11 18 mph 1020.6mb 50f 35f
10:50 3.5ft 5s 4s 11 16 mph 1021.5mb 50f 35f
9:50 4ft 5s 4s 13 18 mph 1022.1mb 50f 36f
8:50 4ft 5s 4s 18 22 mph 1022mb 50f 36f
7:50 4ft 5s 4s 18 22 mph 1021.4mb 50f 37f
6:50 4ft 5s 4s 18 22 mph 1021.1mb 50f 38f
5:50 4ft 5s 4s 20 25 mph 1020.9mb 50f 39f
4:50 3.5ft 5s 4s 18 22 mph 1020.7mb 50f 39f
3:50 4ft 5s 4s 18 22 mph 1020mb 50f 39f
2:50 3.5ft 5s 4s 18 25 mph 1019.3mb 50f 39f
1:50 3.5ft 4s 4s 18 22 mph 1019mb 50f 38f
11:50 4.5ft 5s 5s 18 22 mph 1019.2mb 50f 36f
10:50 4.5ft 5s 5s 18 25 mph 1019.4mb 50f 37f
9:50 5ft 6s 5s 18 25 mph 1019.5mb 50f 37f
8:50 5ft 5s 5s 16 22 mph 1019.6mb 50f 36f
7:50 5ft 6s 5s 20 27 mph 1018.9mb 50f 37f
6:50 5ft 6s 5s 20 27 mph 1018.3mb 50f 37f
5:50 6ft 6s 5s 20 29 mph 1017.9mb 50f 37f
4:50 6.5ft 6s 5s 22 29 mph 1017.1mb 50f 38f
3:50 6.5ft 6s 5s 22 27 mph 1016.6mb 50f 38f
2:50 6ft 6s 5s 22 29 mph 1016.2mb 50f 39f
1:50 6ft 6s 5s 25 29 mph 1015.6mb 50f 39f
12:50 6ft 6s 5s 25 29 mph 1015mb 50f 39f
sáb 12/03 11:50 6.5ft 6s 5s 25 31 mph 1014.5mb 51f 39f
10:50 6.5ft 6s 5s 27 31 mph 1014.2mb 51f 39f
9:50 7ft 6s 5s 27 36 mph 1013.9mb 51f 40f
8:50 7ft 6s 5s 25 31 mph 1013.6mb 51f 40f
6:50 6.5ft 6s 5s 25 31 mph 1012.5mb 50f 41f
5:50 5.5ft 6s 5s 27 31 mph 1011.4mb 51f 42f
4:50 6ft 6s 5s 22 29 mph 1010.7mb 51f 43f
3:50 7ft 5s 5s 25 31 mph 1009.4mb 51f 43f
2:50 6ft 6s 5s 25 31 mph 1008.6mb 51f 43f
1:50 6ft 6s 5s 25 27 mph 1007.9mb 51f 44f
12:50 6.5ft 6s 5s 25 29 mph 1007.7mb 51f 42f
11:50 6ft 6s 5s 25 31 mph 1007.4mb 51f 41f
10:50 6ft 6s 5s 27 31 mph 1007.1mb 51f 42f
9:50 6ft 6s 5s 31 36 mph 1006.4mb 51f 42f
8:50 7ft 6s 5s 29 36 mph 1005.8mb 51f 43f
7:50 6ft 6s 5s 27 34 mph 1005.6mb 51f 43f
6:50 6ft 6s 5s 27 34 mph 1005.2mb 51f 43f
5:50 6.5ft 6s 5s 27 34 mph 1004.5mb 51f 43f
4:50 6ft 6s 5s 25 31 mph 1004mb 51f 43f
3:50 5.5ft 6s 5s 25 31 mph 1003.8mb 51f 43f
2:50 5.5ft 6s 5s 25 29 mph 1003.7mb 51f 44f
1:50 6ft 6s 5s 22 27 mph 1003.7mb 51f 44f
12:50 6ft 6s 5s 22 27 mph 1003.4mb 51f 43f
vie 12/02 11:50 6ft 6s 5s 25 29 mph 1003mb 51f 46f
10:50 6ft 6s 5s 25 31 mph 1003.4mb 51f 47f
9:50 6ft 6s 5s 25 31 mph 1003.4mb 51f 47f
8:50 5ft 5s 5s 22 29 mph 1003.9mb 51f 48f
7:50 5.5ft 6s 5s 20 27 mph 1004.4mb 51f 49f
6:50 5ft 5s 5s 22 27 mph 1004.4mb 51f 50f
5:50 5ft 6s 5s 20 25 mph 1004.5mb 51f 50f
4:50 5ft 6s 5s 16 20 mph 1004.6mb 51f 49f
3:50 5ft 6s 5s 20 25 mph 1004.4mb 51f 49f
2:50 4.5ft 5s 5s 20 22 mph 1004.4mb 51f 49f
1:50 5ft 6s 5s 20 22 mph 1004.3mb 51f 48f
12:50 5ft 6s 5s 18 22 mph 1004.5mb 51f 47f
11:50 5ft 6s 5s 16 20 mph 1004.8mb 51f 47f
10:50 6ft 7s 5s 18 20 mph 1005.3mb 51f 47f
9:50 6ft 7s 5s 18 22 mph 1006mb 51f 47f
8:50 6ft 6s 5s 20 25 mph 1005.8mb 51f 47f
7:50 6.5ft 7s 6s 20 25 mph 1005.6mb 51f 47f
6:50 6.5ft 7s 6s 20 25 mph 1005.3mb 51f 47f